Time;durP1;ratioP1;P1;durP2;ratioP2;P2;SDS_P1;SDS_P2;PMS_P1;PMS_P2;Temp;Humidity;BMP_temperature;BMP_pressure;BME280_temperature;BME280_humidity;BME280_pressure;Samples;Min_cycle;Max_cycle;Signal;HPM_P1;HPM_P2
2022/11/04 04:58:27;;;;;;;40.50;5.68;;;;;;;7.50;76.78;101371.47;5123174;27;20391;-86
2022/11/04 05:00:53;;;;;;;6.78;5.97;;;;;;;7.57;77.27;101359.28;5073050;28;20046;-86
2022/11/04 05:03:18;;;;;;;9.15;5.00;;;;;;;7.76;77.93;101371.66;5088474;28;20504;-86
2022/11/04 05:05:44;;;;;;;8.25;5.38;;;;;;;7.75;75.28;101331.31;5056414;28;20469;-86
2022/11/04 05:08:09;;;;;;;9.68;5.05;;;;;;;8.06;74.38;101369.16;5089853;28;20042;-86
2022/11/04 05:10:35;;;;;;;11.30;6.68;;;;;;;8.15;74.49;101368.91;5072812;28;20020;-86
2022/11/04 05:16:05;;;;;;;16.40;7.45;;;;;;;8.19;74.02;101372.28;5052037;28;20094;-94
2022/11/04 05:18:31;;;;;;;11.45;7.43;;;;;;;8.22;73.64;101367.88;5052870;28;20043;-93
2022/11/04 05:20:56;;;;;;;15.75;6.50;;;;;;;8.29;73.35;101368.56;5088623;28;20027;-83
2022/11/04 05:23:22;;;;;;;12.48;7.15;;;;;;;8.27;73.34;101366.03;5073417;28;20081;-90
2022/11/04 05:25:47;;;;;;;13.00;7.85;;;;;;;8.41;72.77;101378.56;5072106;28;20596;-84
2022/11/04 05:28:13;;;;;;;17.77;8.13;;;;;;;8.39;72.81;101371.75;5070438;28;20501;-94
2022/11/04 05:30:39;;;;;;;18.85;7.57;;;;;;;8.50;72.58;101362.84;5073051;28;20115;-86
2022/11/04 05:33:04;;;;;;;11.43;7.03;;;;;;;8.63;72.57;101371.91;5066490;28;20063;-82
2022/11/04 05:35:30;;;;;;;15.88;8.27;;;;;;;8.68;72.08;101379.53;5050726;28;20052;-94
2022/11/04 05:37:55;;;;;;;11.70;6.97;;;;;;;8.70;72.32;101366.56;5052067;28;20130;-91
2022/11/04 05:40:22;;;;;;;22.73;6.55;;;;;;;8.75;71.57;101375.88;5066287;28;20029;-90
2022/11/04 05:42:47;;;;;;;12.93;6.80;;;;;;;8.68;71.51;101361.47;5045585;28;20132;-85
2022/11/04 05:45:13;;;;;;;20.67;9.45;;;;;;;8.68;71.70;101370.94;5045867;28;20483;-88
2022/11/04 05:47:38;;;;;;;14.23;8.02;;;;;;;8.87;70.76;101367.78;5028931;28;20111;-82
2022/11/04 05:50:04;;;;;;;25.58;11.10;;;;;;;8.94;70.87;101377.88;5045669;28;20025;-92
2022/11/04 05:52:30;;;;;;;17.20;9.82;;;;;;;8.98;70.15;101387.25;5030007;28;20474;-93
2022/11/04 05:54:55;;;;;;;19.95;9.90;;;;;;;8.89;70.32;101378.88;5064341;28;20079;-92
2022/11/04 05:57:21;;;;;;;33.67;9.50;;;;;;;8.69;70.80;101376.03;5065469;28;20049;-93
2022/11/04 05:59:46;;;;;;;14.63;7.63;;;;;;;8.77;71.10;101381.84;5049442;28;20029;-91
2022/11/04 06:02:12;;;;;;;12.60;8.25;;;;;;;8.70;70.85;101359.69;5032780;28;20031;-85
2022/11/04 06:04:37;;;;;;;18.73;7.30;;;;;;;8.74;71.04;101387.06;5047784;28;20122;-91
2022/11/04 06:07:03;;;;;;;14.80;5.55;;;;;;;8.69;71.24;101376.03;5059730;28;20124;-88
2022/11/04 06:09:40;;;;;;;12.80;6.40;;;;;;;8.42;71.18;101327.84;5033719;28;20131;-82
2022/11/04 06:12:13;;;;;;;16.80;7.70;;;;;;;8.72;71.26;101378.53;5032004;28;20039;-87
2022/11/04 06:14:40;;;;;;;12.52;7.85;;;;;;;8.63;71.52;101365.91;5034836;28;20029;-86
2022/11/04 06:17:05;;;;;;;13.82;7.30;;;;;;;8.79;71.18;101380.03;5050741;28;20032;-84
2022/11/04 06:19:31;;;;;;;14.43;7.10;;;;;;;8.81;71.15;101367.09;5051717;28;20037;-88
2022/11/04 06:21:56;;;;;;;21.05;8.50;;;;;;;8.89;71.17;101360.81;5043589;28;20068;-89
2022/11/04 06:24:22;;;;;;;22.13;11.35;;;;;;;8.93;70.82;101355.56;5032524;28;20041;-84
2022/11/04 06:26:47;;;;;;;15.93;9.20;;;;;;;9.15;70.58;101367.78;5034086;28;20036;-96
2022/11/04 06:29:13;;;;;;;17.98;9.02;;;;;;;9.26;70.54;101379.50;5039653;28;20029;-93
2022/11/04 06:31:38;;;;;;;17.95;8.68;;;;;;;9.34;69.92;101383.53;5051726;28;20032;-87
2022/11/04 06:34:03;;;;;;;21.05;9.75;;;;;;;9.42;69.87;101391.00;5031867;28;20042;-87
2022/11/04 06:36:29;;;;;;;22.92;9.55;;;;;;;9.61;69.08;101394.69;5038400;28;20029;-83
2022/11/04 06:38:54;;;;;;;14.10;6.22;;;;;;;9.51;69.20;101382.97;5041477;28;20104;-90
2022/11/04 06:41:20;;;;;;;11.50;5.88;;;;;;;9.47;69.30;101384.81;5040639;28;20483;-86
2022/11/04 06:43:45;;;;;;;14.23;7.97;;;;;;;9.57;69.41;101381.94;5050369;28;20036;-82
2022/11/04 06:46:36;;;;;;;13.80;7.53;;;;;;;9.77;69.14;101402.78;5030859;28;20030;-88
2022/11/04 06:49:03;;;;;;;14.25;7.47;;;;;;;9.84;68.40;101383.63;5034940;28;20163;-89
2022/11/04 06:51:29;;;;;;;15.98;6.43;;;;;;;9.76;68.72;101370.09;5032915;28;20044;-85
2022/11/04 06:53:54;;;;;;;12.48;5.80;;;;;;;9.95;68.64;101385.84;5022158;28;20029;-88
2022/11/04 06:56:20;;;;;;;18.85;9.90;;;;;;;9.85;68.77;101387.88;5019817;28;20069;-88
2022/11/04 06:58:51;;;;;;;32.70;8.57;;;;;;;10.05;68.58;101393.22;5048922;28;20106;-94
2022/11/04 07:01:17;;;;;;;11.35;7.10;;;;;;;10.06;68.08;101389.72;5027284;28;20055;-87
2022/11/04 07:03:43;;;;;;;12.38;7.55;;;;;;;10.16;67.97;101390.25;5065925;28;20482;-95
2022/11/04 07:06:09;;;;;;;18.48;9.85;;;;;;;10.25;67.56;101381.38;5033964;28;20021;-93
2022/11/04 07:08:34;;;;;;;17.63;8.63;;;;;;;10.27;67.87;101371.81;5022596;28;20025;-93
2022/11/04 07:11:00;;;;;;;15.65;9.13;;;;;;;10.37;67.52;101368.00;5037147;28;20047;-88
2022/11/04 07:13:26;;;;;;;21.77;7.97;;;;;;;10.58;68.79;101376.72;5031056;28;20379;-86
2022/11/04 07:15:51;;;;;;;15.50;7.35;;;;;;;10.36;67.23;101314.56;5032625;28;20022;-83
2022/11/04 07:18:17;;;;;;;14.63;8.45;;;;;;;10.62;66.73;101352.44;5034930;28;20114;-86
2022/11/04 07:20:42;;;;;;;16.08;9.15;;;;;;;10.86;67.04;101377.38;5012598;28;20495;-84
2022/11/04 07:23:08;;;;;;;18.13;8.75;;;;;;;10.97;66.28;101374.34;5029814;28;20120;-82
2022/11/04 07:25:33;;;;;;;22.25;12.15;;;;;;;11.05;66.48;101367.16;5027994;28;20037;-86
2022/11/04 07:27:59;;;;;;;15.23;6.95;;;;;;;11.15;66.53;101347.75;5031647;28;20029;-89
2022/11/04 07:30:25;;;;;;;12.90;7.60;;;;;;;11.20;66.16;101350.97;5033691;28;20025;-85
2022/11/04 07:32:51;;;;;;;16.73;6.93;;;;;;;11.25;66.07;101342.22;5033014;28;20037;-86
2022/11/04 07:35:17;;;;;;;8.90;5.55;;;;;;;11.47;66.37;101353.38;5017966;28;20029;-86
2022/11/04 07:37:42;;;;;;;14.63;7.20;;;;;;;11.51;66.33;101354.94;5040392;28;20433;-88
2022/11/04 07:40:09;;;;;;;13.18;7.43;;;;;;;11.60;65.78;101341.63;5045257;28;20025;-88
2022/11/04 07:42:34;;;;;;;18.88;7.43;;;;;;;11.68;65.96;101347.28;5033453;28;20024;-95
2022/11/04 07:45:00;;;;;;;15.70;8.65;;;;;;;11.78;65.90;101347.75;5032638;28;20079;-87
2022/11/04 07:47:29;;;;;;;13.38;7.72;;;;;;;11.88;65.95;101323.16;5026401;28;20041;-84
2022/11/04 07:49:54;;;;;;;18.20;8.00;;;;;;;12.06;65.44;101334.47;5044823;28;20026;-95
2022/11/04 07:52:20;;;;;;;16.27;7.75;;;;;;;12.21;65.54;101338.16;5029626;28;20040;-87
2022/11/04 07:54:46;;;;;;;12.07;7.65;;;;;;;12.33;65.01;101319.44;5038627;28;20041;-87
2022/11/04 07:57:11;;;;;;;14.38;8.70;;;;;;;12.24;64.99;101294.75;5033094;28;20049;-85
2022/11/04 07:59:37;;;;;;;27.75;8.65;;;;;;;12.66;64.51;101330.03;5049147;28;20060;-82
2022/11/04 08:02:02;;;;;;;17.55;8.13;;;;;;;12.53;63.41;101290.00;5030045;28;20037;-83
2022/11/04 08:04:28;;;;;;;21.23;8.32;;;;;;;12.69;63.42;101322.13;5035283;28;20035;-90
2022/11/04 08:06:53;;;;;;;13.85;7.80;;;;;;;12.80;62.95;101327.66;5024715;28;20053;-87
2022/11/04 08:09:19;;;;;;;17.77;9.48;;;;;;;12.76;63.15;101328.69;5021330;28;20116;-93
2022/11/04 08:11:44;;;;;;;19.85;9.45;;;;;;;12.80;63.31;101314.66;5043882;28;20163;-89
2022/11/04 08:14:10;;;;;;;28.02;8.25;;;;;;;12.91;62.70;101312.41;5030041;28;20039;-84
2022/11/04 08:16:35;;;;;;;20.88;8.43;;;;;;;13.02;62.01;101306.69;5029656;28;20414;-92
2022/11/04 08:19:01;;;;;;;25.40;9.73;;;;;;;13.14;62.01;101318.22;5038131;28;20413;-90
2022/11/04 08:21:28;;;;;;;17.55;9.55;;;;;;;13.29;61.25;101307.13;5032014;28;20029;-87
2022/11/04 08:23:54;;;;;;;15.35;9.43;;;;;;;13.33;61.35;101308.66;5042895;28;20531;-91
2022/11/04 08:26:20;;;;;;;20.65;9.98;;;;;;;13.38;60.67;101290.25;5011368;28;20025;-85
2022/11/04 08:28:46;;;;;;;12.35;7.18;;;;;;;13.46;60.55;101309.72;5038755;28;20114;-90
2022/11/04 08:31:18;;;;;;;23.67;9.98;;;;;;;13.35;61.00;101293.81;5029992;28;20408;-88
2022/11/04 08:33:44;;;;;;;17.25;9.80;;;;;;;13.40;61.04;101311.81;5028583;28;20502;-88
2022/11/04 08:36:18;;;;;;;19.33;8.93;;;;;;;13.36;60.97;101287.69;5032369;28;20039;-92
2022/11/04 08:38:44;;;;;;;17.05;8.82;;;;;;;13.40;61.12;101307.44;5033493;28;20025;-93
2022/11/04 08:41:10;;;;;;;26.15;9.73;;;;;;;13.44;60.92;101306.34;5031980;28;20036;-87
2022/11/04 08:43:36;;;;;;;22.00;11.00;;;;;;;13.52;60.74;101298.19;5032150;28;20486;-92
2022/11/04 08:46:03;;;;;;;13.13;8.07;;;;;;;13.55;60.52;101297.19;5032798;28;20086;-87
2022/11/04 08:48:28;;;;;;;20.45;9.10;;;;;;;13.51;60.87;101274.88;5031468;28;20025;-86
2022/11/04 08:50:55;;;;;;;20.17;9.07;;;;;;;13.69;60.69;101281.75;5029468;28;20041;-91
2022/11/04 08:53:20;;;;;;;26.08;9.18;;;;;;;13.56;60.80;101265.91;5042339;28;20472;-87
2022/11/04 08:55:46;;;;;;;23.42;9.75;;;;;;;13.66;60.89;101263.66;5032910;28;20017;-89
2022/11/04 08:58:11;;;;;;;19.70;10.25;;;;;;;13.81;60.48;101257.69;5016307;28;20053;-91
2022/11/04 09:00:37;;;;;;;20.02;10.40;;;;;;;13.88;60.16;101248.66;5042945;28;20073;-83
2022/11/04 09:03:03;;;;;;;18.33;9.60;;;;;;;14.08;59.78;101255.41;5029579;28;20506;-92
2022/11/04 09:05:29;;;;;;;26.13;10.52;;;;;;;14.21;59.58;101260.78;5026735;28;20112;-93
2022/11/04 09:07:55;;;;;;;22.17;10.30;;;;;;;14.25;58.85;101264.88;5031113;28;20120;-91
2022/11/04 09:10:20;;;;;;;25.40;10.43;;;;;;;14.30;58.70;101265.47;5014389;28;20582;-87
2022/11/04 09:12:46;;;;;;;23.45;11.38;;;;;;;14.30;58.59;101262.88;5031389;28;20065;-88
2022/11/04 09:15:12;;;;;;;26.60;11.45;;;;;;;14.18;59.21;101245.34;5031790;28;20395;-82
2022/11/04 09:17:37;;;;;;;30.65;14.43;;;;;;;14.38;58.52;101249.47;5015520;28;20426;-89
2022/11/04 09:20:04;;;;;;;20.98;10.05;;;;;;;14.14;58.96;101213.41;5046039;28;20485;-82
2022/11/04 09:22:30;;;;;;;22.77;10.02;;;;;;;14.57;58.50;101251.00;5028420;28;20045;-88
2022/11/04 09:24:56;;;;;;;20.40;9.77;;;;;;;14.67;57.96;101237.47;5035065;28;20064;-92
2022/11/04 09:27:21;;;;;;;18.15;8.95;;;;;;;14.79;57.76;101248.00;5028032;28;20026;-88
2022/11/04 09:29:47;;;;;;;24.33;9.13;;;;;;;14.80;57.51;101222.81;5045251;28;20163;-91
2022/11/04 09:32:12;;;;;;;21.45;10.65;;;;;;;14.81;57.19;101214.06;5044068;28;20025;-87
2022/11/04 09:34:38;;;;;;;27.23;10.60;;;;;;;14.88;57.32;101233.63;5031553;28;20045;-92
2022/11/04 09:37:03;;;;;;;23.38;11.27;;;;;;;14.79;56.93;101228.94;5032242;28;20306;-94
2022/11/04 09:39:29;;;;;;;26.67;11.40;;;;;;;14.74;57.06;101212.72;5012939;28;20030;-88
2022/11/04 09:42:21;;;;;;;21.23;8.95;;;;;;;14.90;57.05;101216.16;5007860;28;20026;-95
2022/11/04 09:44:53;;;;;;;20.83;9.02;;;;;;;14.84;57.21;101183.47;5023517;28;20487;-85
2022/11/04 09:47:18;;;;;;;23.27;11.82;;;;;;;14.96;56.83;101189.75;5028208;28;20486;-86
2022/11/04 09:49:45;;;;;;;34.10;12.85;;;;;;;15.09;56.76;101208.09;5051167;28;20025;-84
2022/11/04 09:52:19;;;;;;;21.83;9.98;;;;;;;15.05;56.57;101206.63;5035225;28;20029;-83
2022/11/04 09:55:03;;;;;;;25.45;12.35;;;;;;;14.95;56.60;101190.69;5032748;28;20476;-85
2022/11/04 09:57:29;;;;;;;21.50;10.93;;;;;;;14.89;56.93;101175.41;5051337;28;20053;-87
2022/11/04 09:59:54;;;;;;;28.17;12.25;;;;;;;15.02;56.86;101186.75;5045618;28;20036;-86
2022/11/04 10:02:51;;;;;;;33.30;11.73;;;;;;;15.10;56.87;101187.16;5034422;28;20083;-88
2022/11/04 10:05:35;;;;;;;16.33;10.15;;;;;;;15.04;56.66;101174.47;5039986;28;20036;-85
2022/11/04 10:08:22;;;;;;;19.00;8.45;;;;;;;15.15;56.87;101179.94;5047691;28;20179;-86
2022/11/04 10:11:04;;;;;;;22.65;10.20;;;;;;;15.09;56.69;101155.97;5035999;28;20048;-92
2022/11/04 10:14:26;;;;;;;20.70;10.20;;;;;;;15.39;56.57;101158.53;5032510;28;20044;-87
2022/11/04 10:17:22;;;;;;;23.23;8.40;;;;;;;15.51;55.97;101155.16;4990195;28;20042;-85
2022/11/04 10:20:04;;;;;;;19.48;10.43;;;;;;;15.60;55.52;101151.16;4989155;28;20041;-88
2022/11/04 10:22:35;;;;;;;24.10;10.25;;;;;;;15.65;55.41;101129.13;5029127;28;20043;-86
2022/11/04 10:25:13;;;;;;;25.23;12.45;;;;;;;15.75;54.76;101135.44;5034268;28;20090;-86
2022/11/04 10:27:41;;;;;;;23.05;9.88;;;;;;;15.76;54.88;101137.13;5034998;28;20091;-86
2022/11/04 10:30:14;;;;;;;27.88;12.10;;;;;;;15.87;54.84;101128.63;5030658;28;20491;-84
2022/11/04 10:32:49;;;;;;;20.95;11.40;;;;;;;15.88;54.74;101111.19;5022004;28;20139;-84
2022/11/04 10:35:23;;;;;;;21.23;9.68;;;;;;;15.92;54.80;101118.72;5047001;28;20083;-85
2022/11/04 10:37:51;;;;;;;35.90;15.93;;;;;;;15.88;54.52;101104.19;5046554;28;20052;-81
2022/11/04 10:40:31;;;;;;;20.70;10.73;;;;;;;15.93;54.87;101106.53;5018860;28;20072;-83
2022/11/04 10:42:57;;;;;;;23.17;9.65;;;;;;;16.04;54.26;101099.69;5026667;28;20026;-84
2022/11/04 10:45:28;;;;;;;38.58;12.38;;;;;;;16.10;53.97;101098.44;5045152;28;20040;-87
2022/11/04 10:48:02;;;;;;;26.98;12.10;;;;;;;16.07;53.69;101077.75;5030458;28;20116;-85
2022/11/04 10:50:41;;;;;;;21.05;10.63;;;;;;;16.29;53.95;101098.91;5021783;28;20120;-88
2022/11/04 10:53:21;;;;;;;24.52;11.55;;;;;;;16.24;53.81;101080.13;5036224;28;20132;-87
2022/11/04 10:56:14;;;;;;;20.50;10.45;;;;;;;16.36;53.38;101078.47;5027501;28;20072;-80
2022/11/04 10:58:45;;;;;;;24.20;11.98;;;;;;;16.38;54.06;101065.31;5044537;28;20041;-81
2022/11/04 11:01:31;;;;;;;24.05;11.18;;;;;;;16.51;53.65;101050.50;5013460;28;20410;-81
2022/11/04 11:03:57;;;;;;;21.92;11.98;;;;;;;16.74;52.83;101068.13;5046413;28;20028;-81
2022/11/04 11:06:32;;;;;;;25.60;12.40;;;;;;;16.87;52.42;101068.09;5048780;28;20031;-85
2022/11/04 11:09:14;;;;;;;22.45;12.00;;;;;;;16.89;52.32;101067.06;5048927;28;20044;-89
2022/11/04 11:11:41;;;;;;;38.97;12.15;;;;;;;16.84;52.49;101052.66;5051062;28;20074;-86
2022/11/04 11:14:25;;;;;;;31.58;13.82;;;;;;;16.89;52.30;101056.59;5033419;28;20025;-91
2022/11/04 11:16:50;;;;;;;28.52;13.15;;;;;;;16.79;52.39;101039.88;5042362;28;20028;-95
2022/11/04 11:19:18;;;;;;;25.90;11.93;;;;;;;16.86;52.39;101045.53;5042623;28;20037;-85
2022/11/04 11:21:48;;;;;;;24.92;11.40;;;;;;;16.87;52.23;101048.03;5030881;28;20579;-82
2022/11/04 11:24:29;;;;;;;29.02;11.98;;;;;;;16.74;52.88;101026.31;5033510;28;20079;-88
2022/11/04 11:26:59;;;;;;;31.20;13.77;;;;;;;16.72;52.57;101028.19;5032055;28;20048;-89
2022/11/04 11:29:39;;;;;;;101.20;39.17;;;;;;;16.68;53.06;101039.78;5034668;28;20049;-86
2022/11/04 11:32:04;;;;;;;29.92;14.63;;;;;;;16.55;52.66;101031.91;5016315;28;20063;-88
2022/11/04 11:34:32;;;;;;;26.75;12.32;;;;;;;16.49;52.82;101036.69;5043069;28;20380;-86
2022/11/04 11:36:57;;;;;;;27.08;11.88;;;;;;;16.50;53.28;101035.75;5013584;28;20082;-84
2022/11/04 11:39:42;;;;;;;53.80;24.10;;;;;;;16.41;53.18;101031.16;5019880;28;20029;-91
2022/11/04 11:42:11;;;;;;;33.08;13.38;;;;;;;16.23;53.71;101015.78;5017955;28;20033;-95
2022/11/04 11:44:43;;;;;;;26.73;12.23;;;;;;;16.35;53.37;101033.25;5033584;28;20032;-81
2022/11/04 11:47:18;;;;;;;28.75;12.20;;;;;;;16.28;54.09;101038.97;5033898;28;20500;-89
2022/11/04 11:49:44;;;;;;;31.35;12.55;;;;;;;16.30;54.04;101027.47;5047638;28;20028;-86
2022/11/04 11:52:32;;;;;;;29.13;12.90;;;;;;;16.29;54.20;101019.75;5050805;28;20036;-79
2022/11/04 11:55:14;;;;;;;32.55;12.82;;;;;;;16.31;54.44;101023.94;5015698;28;20426;-86
2022/11/04 11:57:44;;;;;;;35.25;13.25;;;;;;;16.31;54.36;101023.94;5033472;28;20421;-88
2022/11/04 12:00:15;;;;;;;27.60;13.05;;;;;;;16.30;53.82;101005.75;5050245;28;20036;-83
2022/11/04 12:02:49;;;;;;;32.65;13.27;;;;;;;16.41;53.55;101005.03;5049635;28;20060;-84
2022/11/04 12:05:17;;;;;;;27.23;11.77;;;;;;;16.21;53.12;100965.44;5048888;28;20397;-82
2022/11/04 12:07:59;;;;;;;34.03;14.52;;;;;;;16.30;53.31;100967.44;5030622;28;20036;-83
2022/11/04 12:10:36;;;;;;;;;;;;;;;16.49;53.15;100995.75;5047177;28;20079;-84
2022/11/04 12:13:15;;;;;;;16.13;9.07;;;;;;;16.45;53.10;100993.47;5046008;28;19960;-84
2022/11/04 12:15:44;;;;;;;26.10;12.63;;;;;;;16.44;53.38;100991.78;5048285;28;20112;-84
2022/11/04 12:18:15;;;;;;;27.00;12.70;;;;;;;16.42;53.40;100972.75;5065399;28;20036;-86
2022/11/04 12:20:59;;;;;;;25.80;11.43;;;;;;;16.48;53.35;100993.25;5050060;28;20029;-81
2022/11/04 12:23:59;;;;;;;24.30;12.60;;;;;;;16.42;53.20;100957.09;5045471;28;20272;-81
2022/11/04 12:26:45;;;;;;;27.73;12.55;;;;;;;16.46;53.14;100946.34;5049266;28;20063;-85
2022/11/04 12:29:38;;;;;;;26.40;12.80;;;;;;;16.58;52.68;100961.19;5050551;28;20031;-88
2022/11/04 12:32:23;;;;;;;;;;;;;;;16.66;52.88;100970.28;5046722;28;20115;-82
2022/11/04 12:34:55;;;;;;;21.80;11.20;;;;;;;16.54;53.42;100951.06;5047486;28;19923;-84
2022/11/04 12:37:51;;;;;;;24.23;10.65;;;;;;;16.62;53.01;100954.81;5049400;28;20517;-81
2022/11/04 12:40:31;;;;;;;20.80;11.10;;;;;;;16.59;53.47;100964.63;5030780;28;20067;-90
2022/11/04 12:43:19;;;;;;;24.67;10.90;;;;;;;16.55;53.21;100958.78;5048456;28;20029;-82
2022/11/04 12:46:05;;;;;;;23.35;10.63;;;;;;;16.50;53.04;100926.91;5049184;28;20038;-88
2022/11/04 12:48:53;;;;;;;24.98;11.00;;;;;;;16.54;52.98;100927.56;5049228;28;20063;-83
2022/11/04 12:51:28;;;;;;;25.77;9.82;;;;;;;16.64;53.18;100950.31;5047500;28;20052;-87
2022/11/04 12:54:00;;;;;;;27.55;12.43;;;;;;;16.53;52.93;100920.66;5049276;28;20025;-82
2022/11/04 12:56:39;;;;;;;27.25;11.35;;;;;;;16.67;52.55;100941.44;5047558;28;20080;-85
2022/11/04 12:59:39;;;;;;;28.45;12.07;;;;;;;16.58;52.89;100944.66;5033726;28;20024;-83
2022/11/04 13:02:16;;;;;;;25.48;11.20;;;;;;;16.59;53.02;100933.28;5065484;28;20501;-84
2022/11/04 13:05:05;;;;;;;25.52;11.85;;;;;;;16.58;53.01;100942.06;5047602;28;20445;-84
2022/11/04 13:07:48;;;;;;;29.15;11.98;;;;;;;16.53;52.66;100918.06;5038003;28;20029;-82
2022/11/04 13:10:20;;;;;;;31.10;12.88;;;;;;;16.56;52.59;100913.44;5032412;28;20223;-84
2022/11/04 13:12:45;;;;;;;25.15;11.05;;;;;;;16.47;52.40;100892.34;5031724;28;20029;-87
2022/11/04 13:15:15;;;;;;;28.88;11.85;;;;;;;16.49;52.50;100922.63;5048281;28;20086;-80
2022/11/04 13:17:41;;;;;;;26.20;11.10;;;;;;;16.54;52.94;100935.38;5047351;28;20040;-82
2022/11/04 13:20:13;;;;;;;29.88;10.63;;;;;;;16.76;51.87;100925.16;5052112;28;20028;-82
2022/11/04 13:22:38;;;;;;;41.10;12.70;;;;;;;16.62;52.65;100927.88;5051270;28;20039;-81
2022/11/04 13:25:06;;;;;;;25.73;11.48;;;;;;;16.63;52.80;100929.53;5035369;28;20028;-82
2022/11/04 13:27:36;;;;;;;31.15;11.77;;;;;;;16.57;52.82;100935.16;5036099;28;20125;-82
2022/11/04 13:30:17;;;;;;;23.67;10.50;;;;;;;16.66;52.81;100929.31;5036431;28;20041;-86
2022/11/04 13:33:21;;;;;;;27.63;11.95;;;;;;;16.67;52.95;100930.97;5067913;28;20032;-87
2022/11/04 13:36:07;;;;;;;19.45;10.15;;;;;;;16.62;52.50;100906.97;5027601;28;20041;-84
2022/11/04 13:38:38;;;;;;;22.70;9.43;;;;;;;16.44;52.21;100872.50;5017654;28;20040;-82
2022/11/04 13:41:37;;;;;;;26.92;10.85;;;;;;;16.72;52.29;100920.25;5034280;28;20032;-85
2022/11/04 13:44:26;;;;;;;24.90;12.23;;;;;;;16.55;52.88;100896.09;5050673;28;20024;-86
2022/11/04 13:46:53;;;;;;;23.60;11.70;;;;;;;16.63;52.67;100899.03;5035558;28;20028;-88
2022/11/04 13:49:29;;;;;;;25.95;11.35;;;;;;;16.71;52.28;100905.50;5033794;28;20105;-89
2022/11/04 13:52:05;;;;;;;23.70;12.15;;;;;;;16.75;52.29;100907.81;5049234;28;20107;-82
2022/11/04 13:54:50;;;;;;;38.80;12.23;;;;;;;16.68;52.14;100892.63;5050564;28;20021;-87
2022/11/04 13:57:24;;;;;;;30.05;11.40;;;;;;;16.59;52.30;100902.78;5050451;28;20413;-89
2022/11/04 14:00:14;;;;;;;30.10;13.75;;;;;;;16.63;52.82;100900.78;5035213;28;20033;-87
2022/11/04 14:02:58;;;;;;;28.98;12.10;;;;;;;16.77;52.37;100895.47;5050370;28;20112;-86
2022/11/04 14:05:27;;;;;;;26.23;11.88;;;;;;;16.75;52.33;100892.13;5049981;28;20103;-87
2022/11/04 14:08:01;;;;;;;28.52;12.10;;;;;;;16.60;52.26;100861.81;5051291;28;20056;-83
2022/11/04 14:10:48;;;;;;;30.60;12.15;;;;;;;16.69;52.44;100887.31;5053403;28;20035;-86
2022/11/04 14:13:30;;;;;;;32.30;12.52;;;;;;;16.55;52.81;100866.53;5050722;28;20086;-83
2022/11/04 14:16:23;;;;;;;27.48;13.68;;;;;;;16.63;52.48;100882.50;5050185;28;20108;-82
2022/11/04 14:18:49;;;;;;;28.08;11.63;;;;;;;16.59;52.72;100875.81;5049976;28;20131;-83
2022/11/04 14:21:18;;;;;;;24.75;13.02;;;;;;;16.58;53.07;100887.22;5050780;28;20029;-82
2022/11/04 14:24:02;;;;;;;31.90;13.35;;;;;;;16.51;53.69;100872.91;5053240;28;20086;-82
2022/11/04 14:26:39;;;;;;;25.67;11.77;;;;;;;16.35;54.21;100868.75;5030371;28;20411;-83
2022/11/04 14:29:14;;;;;;;32.75;11.90;;;;;;;16.30;54.50;100863.00;5031000;28;20036;-84
2022/11/04 14:31:45;;;;;;;33.25;13.00;;;;;;;16.14;54.77;100844.13;5031434;28;20033;-83
2022/11/04 14:34:26;;;;;;;29.00;13.10;;;;;;;16.18;55.46;100873.47;4999457;28;20030;-90
2022/11/04 14:37:20;;;;;;;26.58;11.85;;;;;;;16.06;55.34;100868.16;5031255;28;20029;-84
2022/11/04 14:39:50;;;;;;;28.58;12.70;;;;;;;16.04;55.71;100874.41;5014975;28;20036;-82
2022/11/04 14:42:15;;;;;;;27.23;12.23;;;;;;;15.99;55.76;100871.25;5014912;28;20025;-84
